createdAt,value
2023-04-06T00:01:00.528Z,1.30
2023-04-06T00:03:27.473Z,1.20
2023-04-06T00:05:54.356Z,1.10
2023-04-06T00:08:22.441Z,1.00
2023-04-06T00:10:49.191Z,1.00
2023-04-06T00:15:43.434Z,1.00
2023-04-06T00:18:10.275Z,1.00
2023-04-06T00:20:37.052Z,0.90
2023-04-06T00:23:03.895Z,0.90
2023-04-06T00:27:58.040Z,1.20
2023-04-06T00:32:52.481Z,1.40
2023-04-06T00:35:19.439Z,1.50
2023-04-06T00:37:49.050Z,1.60
2023-04-06T00:40:16.457Z,1.50
2023-04-06T00:42:43.360Z,1.50
2023-04-06T00:45:10.855Z,1.50
2023-04-06T00:47:37.844Z,1.70
2023-04-06T00:50:05.065Z,1.70
2023-04-06T00:52:31.877Z,1.80
2023-04-06T00:54:58.646Z,1.90
2023-04-06T00:57:25.440Z,2.00
2023-04-06T00:59:53.657Z,2.00
2023-04-06T01:02:20.670Z,2.00
2023-04-06T01:04:47.477Z,1.90
2023-04-06T01:07:14.430Z,2.00
2023-04-06T01:09:42.966Z,1.90
2023-04-06T01:12:09.932Z,1.80
2023-04-06T01:14:36.862Z,1.80
2023-04-06T01:17:03.819Z,1.60
2023-04-06T01:19:30.658Z,1.60
2023-04-06T01:24:24.778Z,1.50
2023-04-06T01:26:51.636Z,1.60
2023-04-06T01:29:18.411Z,1.50
2023-04-06T01:34:12.529Z,1.20
2023-04-06T01:36:39.350Z,1.20
2023-04-06T01:39:06.327Z,1.10
2023-04-06T01:41:33.306Z,1.00
2023-04-06T01:44:00.156Z,1.00
2023-04-06T01:46:27.264Z,1.10
2023-04-06T01:51:21.327Z,1.10
2023-04-06T01:53:49.365Z,1.20
2023-04-06T01:56:16.254Z,1.30
2023-04-06T01:58:43.270Z,1.40
2023-04-06T02:01:10.549Z,1.40
2023-04-06T02:03:37.405Z,1.50
2023-04-06T02:06:04.924Z,1.50
2023-04-06T02:08:31.826Z,1.50
2023-04-06T02:13:25.777Z,1.50
2023-04-06T02:15:52.567Z,1.50
2023-04-06T02:18:19.585Z,1.60
2023-04-06T02:20:46.734Z,1.50
2023-04-06T02:23:13.589Z,1.50
2023-04-06T02:25:41.124Z,1.60
2023-04-06T02:28:08.238Z,1.60
2023-04-06T02:30:35.514Z,1.50
2023-04-06T02:33:03.092Z,1.40
2023-04-06T02:35:31.446Z,1.40
2023-04-06T02:37:58.244Z,1.40
2023-04-06T02:42:52.358Z,1.30
2023-04-06T02:45:19.279Z,1.30
2023-04-06T02:47:46.330Z,1.20
2023-04-06T02:50:13.226Z,1.00
2023-04-06T02:55:08.683Z,0.80
2023-04-06T03:00:03.340Z,0.60
2023-04-06T03:02:30.550Z,0.50
2023-04-06T03:04:57.440Z,0.40
2023-04-06T03:07:24.306Z,0.30
2023-04-06T03:09:51.264Z,0.20
2023-04-06T03:12:18.468Z,0.20
2023-04-06T03:14:45.310Z,0.30
2023-04-06T03:24:33.796Z,0.30
2023-04-06T03:31:55.935Z,0.20
2023-04-06T03:34:22.719Z,0.10
2023-04-06T03:36:59.560Z,0.10
2023-04-06T03:39:33.816Z,0.10
2023-04-06T03:42:00.702Z,0.00
2023-04-06T03:46:54.746Z,0.20
2023-04-06T03:49:21.644Z,0.20
2023-04-06T03:56:42.837Z,0.30
2023-04-06T04:01:37.442Z,0.20
2023-04-06T04:06:31.557Z,0.10
2023-04-06T04:13:52.558Z,-0.40
2023-04-06T04:21:15.007Z,-0.50
2023-04-06T04:28:36.279Z,-0.70
2023-04-06T04:35:57.697Z,-0.90
2023-04-06T04:38:24.505Z,-0.90
2023-04-06T04:43:18.391Z,-0.70
2023-04-06T04:48:12.561Z,-0.70
2023-04-06T04:50:39.616Z,-0.70
2023-04-06T05:02:55.780Z,-0.60
2023-04-06T05:05:22.586Z,-0.50
2023-04-06T05:07:49.292Z,-0.40
2023-04-06T05:15:11.065Z,0.00
2023-04-06T05:17:37.906Z,0.00
2023-04-06T05:20:05.594Z,0.00
2023-04-06T05:24:59.461Z,0.10
2023-04-06T05:27:26.316Z,0.20
2023-04-06T05:32:23.992Z,0.30
2023-04-06T05:34:51.085Z,0.30
2023-04-06T05:37:17.874Z,0.20
2023-04-06T05:39:44.628Z,0.10
2023-04-06T05:42:12.241Z,0.10
2023-04-06T05:44:39.611Z,0.10
2023-04-06T05:47:06.341Z,0.20
2023-04-06T05:49:33.125Z,0.20
2023-04-06T05:51:59.835Z,0.30
2023-04-06T05:54:27.038Z,0.20
2023-04-06T05:56:53.935Z,0.30
2023-04-06T06:06:42.886Z,2.90
2023-04-06T06:09:09.752Z,4.10
2023-04-06T06:11:38.245Z,5.10
2023-04-06T06:14:05.306Z,6.30
2023-04-06T06:16:32.112Z,7.40
2023-04-06T06:18:58.878Z,8.10
2023-04-06T06:21:25.713Z,8.70
2023-04-06T06:23:52.514Z,9.30
2023-04-06T06:28:46.396Z,9.90
2023-04-06T06:31:13.353Z,10.00
2023-04-06T06:33:40.272Z,10.40
2023-04-06T06:36:07.252Z,10.40
2023-04-06T06:38:34.010Z,11.00
2023-04-06T06:41:01.007Z,11.50
2023-04-06T06:43:27.919Z,11.50
2023-04-06T06:45:54.774Z,11.90
2023-04-06T06:48:21.583Z,12.30
2023-04-06T06:50:49.564Z,12.10
2023-04-06T06:53:16.657Z,11.70
2023-04-06T06:55:45.142Z,11.30
2023-04-06T06:58:12.035Z,11.20
2023-04-06T07:00:39.202Z,11.20
2023-04-06T07:03:06.244Z,11.20
2023-04-06T07:08:08.425Z,11.10
2023-04-06T07:10:36.148Z,10.80
2023-04-06T07:13:02.994Z,10.30
2023-04-06T07:15:29.697Z,9.70
2023-04-06T07:17:56.880Z,9.10
2023-04-06T07:20:23.773Z,8.80
2023-04-06T07:22:50.681Z,8.70
2023-04-06T07:25:17.449Z,8.90
2023-04-06T07:27:44.274Z,9.00
2023-04-06T07:30:11.473Z,8.60
2023-04-06T07:32:38.408Z,8.60
2023-04-06T07:35:05.915Z,8.30
2023-04-06T07:37:32.699Z,8.40
2023-04-06T07:39:59.530Z,9.50
2023-04-06T07:42:26.317Z,9.70
2023-04-06T07:44:53.032Z,9.70
2023-04-06T07:47:20.087Z,10.00
2023-04-06T07:49:46.796Z,10.50
2023-04-06T07:52:13.572Z,11.00
2023-04-06T07:54:42.450Z,11.20
2023-04-06T07:57:09.188Z,11.20
2023-04-06T07:59:36.113Z,11.20
2023-04-06T08:02:02.962Z,10.80
2023-04-06T08:04:29.938Z,11.20
2023-04-06T08:06:56.755Z,11.20
2023-04-06T08:09:23.553Z,12.00
2023-04-06T08:11:50.312Z,12.10
2023-04-06T08:14:17.156Z,12.10
2023-04-06T08:16:44.047Z,11.60
2023-04-06T08:19:10.817Z,11.30
2023-04-06T08:21:37.590Z,11.70
2023-04-06T08:24:04.637Z,12.00
2023-04-06T08:26:31.559Z,12.10
2023-04-06T08:28:58.403Z,12.60
2023-04-06T08:31:25.595Z,12.60
2023-04-06T08:33:52.352Z,12.80
2023-04-06T08:36:23.663Z,12.60
2023-04-06T08:38:50.874Z,12.70
2023-04-06T08:41:18.755Z,12.60
2023-04-06T08:43:49.097Z,12.60
2023-04-06T08:46:16.605Z,12.70
2023-04-06T08:48:44.395Z,13.00
2023-04-06T08:51:11.664Z,13.00
2023-04-06T08:53:39.423Z,12.70
2023-04-06T08:56:06.959Z,12.50
2023-04-06T08:58:39.346Z,12.50
2023-04-06T09:01:11.964Z,12.30
2023-04-06T09:03:41.560Z,12.60
2023-04-06T09:06:09.954Z,12.60
2023-04-06T09:08:39.189Z,12.50
2023-04-06T09:11:06.976Z,12.30
2023-04-06T09:13:51.388Z,12.40
2023-04-06T09:16:18.837Z,12.80
2023-04-06T09:18:46.221Z,12.60
2023-04-06T09:21:13.038Z,12.70
2023-04-06T09:23:40.425Z,12.70
2023-04-06T09:26:18.331Z,12.80
2023-04-06T09:29:07.159Z,12.80
2023-04-06T09:31:34.307Z,12.80
2023-04-06T09:34:01.767Z,13.00
2023-04-06T09:36:42.933Z,13.20
2023-04-06T09:39:09.719Z,13.10
2023-04-06T09:41:37.207Z,13.20
2023-04-06T09:44:08.149Z,13.40
2023-04-06T09:46:58.961Z,13.30
2023-04-06T09:49:34.305Z,13.10
2023-04-06T09:52:07.640Z,12.90
2023-04-06T09:54:37.300Z,13.40
2023-04-06T09:57:14.663Z,13.70
2023-04-06T10:00:12.165Z,13.70
2023-04-06T10:03:08.555Z,13.50
2023-04-06T10:05:51.717Z,13.80
2023-04-06T10:08:20.452Z,14.30
2023-04-06T10:10:48.115Z,14.50
2023-04-06T10:13:15.094Z,14.20
2023-04-06T10:15:43.875Z,14.00
2023-04-06T10:18:11.007Z,14.00
2023-04-06T10:20:52.170Z,14.00
2023-04-06T10:23:32.052Z,14.30
2023-04-06T10:26:01.501Z,14.10
2023-04-06T10:28:34.245Z,14.00
2023-04-06T10:31:03.275Z,14.00
2023-04-06T10:33:30.174Z,14.00
2023-04-06T10:35:57.261Z,14.30
2023-04-06T10:38:41.459Z,14.60
2023-04-06T10:41:11.548Z,14.90
2023-04-06T10:43:43.241Z,14.40
2023-04-06T10:46:11.610Z,14.90
2023-04-06T10:48:48.895Z,14.90
2023-04-06T10:51:18.055Z,14.70
2023-04-06T10:53:47.705Z,14.90
2023-04-06T10:56:17.410Z,14.90
2023-04-06T10:58:52.638Z,14.90
2023-04-06T11:01:21.676Z,14.50
2023-04-06T11:03:50.512Z,14.20
2023-04-06T11:06:21.120Z,14.30
2023-04-06T11:08:47.974Z,14.60
2023-04-06T11:11:17.038Z,15.00
2023-04-06T11:13:45.359Z,15.10
2023-04-06T11:16:25.346Z,14.70
2023-04-06T11:18:52.139Z,14.70
2023-04-06T11:21:20.036Z,14.40
2023-04-06T11:23:46.877Z,14.50
2023-04-06T11:26:15.167Z,14.60
2023-04-06T11:28:44.951Z,14.30
2023-04-06T11:31:12.489Z,14.30
2023-04-06T11:33:39.900Z,14.50
2023-04-06T11:36:07.838Z,14.70
2023-04-06T11:38:34.774Z,14.60
2023-04-06T11:41:02.810Z,14.70
2023-04-06T11:43:32.475Z,15.00
2023-04-06T11:46:04.202Z,14.90
2023-04-06T11:48:32.034Z,14.50
2023-04-06T11:51:01.758Z,14.40
2023-04-06T11:53:30.104Z,14.50
2023-04-06T11:55:57.644Z,14.60
2023-04-06T11:58:24.740Z,14.70
2023-04-06T12:00:51.589Z,14.60
2023-04-06T12:03:18.407Z,14.80
2023-04-06T12:05:45.458Z,14.80
2023-04-06T12:08:12.290Z,15.00
2023-04-06T12:10:39.057Z,15.20
2023-04-06T12:13:06.314Z,15.30
2023-04-06T12:15:33.196Z,15.60
2023-04-06T12:17:59.980Z,15.00
2023-04-06T12:20:27.647Z,15.10
2023-04-06T12:22:54.785Z,15.40
2023-04-06T12:25:21.609Z,15.50
2023-04-06T12:27:48.786Z,15.40
2023-04-06T12:30:16.403Z,15.00
2023-04-06T12:32:43.285Z,15.00
2023-04-06T12:35:12.564Z,15.70
2023-04-06T12:37:39.338Z,15.70
2023-04-06T12:40:06.785Z,15.60
2023-04-06T12:42:33.578Z,15.60
2023-04-06T12:45:00.364Z,15.90
2023-04-06T12:47:27.633Z,15.70
2023-04-06T12:49:55.765Z,15.90
2023-04-06T12:52:22.555Z,15.90
2023-04-06T12:54:50.145Z,16.30
2023-04-06T12:57:18.251Z,16.40
2023-04-06T12:59:45.710Z,16.20
2023-04-06T13:02:13.085Z,15.80
2023-04-06T13:04:40.280Z,15.80
2023-04-06T13:07:07.096Z,15.30
2023-04-06T13:09:33.907Z,15.50
2023-04-06T13:12:01.956Z,15.50
2023-04-06T13:14:28.862Z,15.40
2023-04-06T13:16:55.995Z,15.50
2023-04-06T13:19:23.729Z,16.00
2023-04-06T13:21:50.604Z,16.00
2023-04-06T13:24:17.869Z,15.80
2023-04-06T13:26:44.982Z,15.80
2023-04-06T13:29:11.909Z,15.60
2023-04-06T13:31:39.911Z,15.60
2023-04-06T13:34:06.806Z,15.70
2023-04-06T13:36:33.659Z,16.10
2023-04-06T13:39:00.597Z,16.20
2023-04-06T13:41:27.594Z,16.30
2023-04-06T13:43:54.418Z,15.50
2023-04-06T13:46:21.481Z,15.40
2023-04-06T13:48:48.930Z,15.50
2023-04-06T13:51:16.400Z,15.50
2023-04-06T13:53:43.230Z,15.60
2023-04-06T13:58:37.475Z,15.20
2023-04-06T14:01:11.369Z,15.00
2023-04-06T14:03:40.389Z,15.20
2023-04-06T14:08:44.361Z,15.60
2023-04-06T14:11:14.482Z,15.80
2023-04-06T14:13:41.299Z,15.80
2023-04-06T14:16:08.605Z,15.80
2023-04-06T14:18:37.705Z,15.80
2023-04-06T14:21:04.630Z,15.60
2023-04-06T14:23:31.380Z,15.50
2023-04-06T14:26:06.247Z,15.50
2023-04-06T14:28:36.870Z,15.50
2023-04-06T14:31:11.246Z,15.40
2023-04-06T14:33:38.038Z,15.50
2023-04-06T14:36:05.941Z,15.30
2023-04-06T14:38:33.596Z,15.10
2023-04-06T14:41:00.455Z,15.00
2023-04-06T14:43:27.407Z,14.80
2023-04-06T14:45:54.372Z,14.70
2023-04-06T14:48:21.136Z,14.90
2023-04-06T14:50:57.542Z,14.90
2023-04-06T14:53:25.391Z,14.90
2023-04-06T14:55:54.893Z,14.80
2023-04-06T14:58:23.241Z,14.90
2023-04-06T15:00:50.493Z,14.80
2023-04-06T15:03:17.431Z,14.70
2023-04-06T15:05:44.295Z,14.60
2023-04-06T15:08:12.475Z,14.70
2023-04-06T15:10:39.213Z,14.80
2023-04-06T15:13:06.203Z,14.70
2023-04-06T15:15:33.066Z,14.30
2023-04-06T15:18:03.367Z,14.30
2023-04-06T15:20:30.656Z,14.40
2023-04-06T15:22:57.711Z,14.50
2023-04-06T15:25:24.491Z,14.50
2023-04-06T15:27:51.336Z,14.40
2023-04-06T15:30:18.047Z,14.30
2023-04-06T15:32:57.044Z,14.30
2023-04-06T15:35:23.979Z,14.30
2023-04-06T15:37:50.766Z,14.30
2023-04-06T15:40:17.492Z,14.30
2023-04-06T15:42:44.452Z,14.40
2023-04-06T15:45:12.096Z,14.30
2023-04-06T15:47:39.772Z,14.10
2023-04-06T15:50:07.383Z,14.10
2023-04-06T15:52:36.345Z,14.20
2023-04-06T15:55:05.811Z,14.10
2023-04-06T15:57:32.549Z,14.20
2023-04-06T15:59:59.649Z,14.20
2023-04-06T16:02:26.937Z,14.10
2023-04-06T16:05:04.079Z,14.20
2023-04-06T16:07:32.291Z,14.10
2023-04-06T16:09:59.035Z,14.00
2023-04-06T16:12:27.715Z,13.90
2023-04-06T16:14:55.715Z,13.90
2023-04-06T16:17:22.964Z,13.90
2023-04-06T16:19:49.930Z,13.90
2023-04-06T16:22:16.752Z,13.90
2023-04-06T16:24:43.464Z,13.90
2023-04-06T16:27:10.628Z,13.90
2023-04-06T16:29:37.339Z,13.90
2023-04-06T16:32:04.732Z,13.90
2023-04-06T16:34:34.441Z,13.90
2023-04-06T16:37:01.858Z,13.90
2023-04-06T16:39:28.952Z,14.00
2023-04-06T16:41:56.729Z,13.90
2023-04-06T16:44:23.753Z,13.90
2023-04-06T16:49:20.081Z,13.80
2023-04-06T16:51:47.092Z,13.80
2023-04-06T16:54:13.893Z,13.70
2023-04-06T16:56:40.632Z,13.70
2023-04-06T16:59:08.931Z,13.70
2023-04-06T17:01:35.788Z,13.70
2023-04-06T17:04:02.645Z,13.60
2023-04-06T17:06:29.505Z,13.60
2023-04-06T17:08:56.526Z,13.50
2023-04-06T17:11:28.545Z,13.50
2023-04-06T17:14:02.855Z,13.50
2023-04-06T17:16:29.722Z,13.40
2023-04-06T17:18:57.802Z,13.40
2023-04-06T17:21:24.636Z,13.30
2023-04-06T17:23:51.544Z,13.20
2023-04-06T17:28:45.754Z,13.10
2023-04-06T17:31:12.965Z,13.00
2023-04-06T17:33:41.028Z,12.90
2023-04-06T17:36:12.458Z,12.90
2023-04-06T17:38:43.537Z,12.70
2023-04-06T17:41:11.889Z,12.60
2023-04-06T17:43:38.736Z,12.50
2023-04-06T17:46:05.923Z,12.40
2023-04-06T17:48:32.718Z,12.30
2023-04-06T17:50:59.433Z,12.10
2023-04-06T17:53:26.593Z,12.00
2023-04-06T17:55:53.324Z,11.80
2023-04-06T17:58:20.332Z,11.70
2023-04-06T18:00:47.014Z,11.50
2023-04-06T18:03:13.822Z,11.40
2023-04-06T18:05:40.608Z,11.40
2023-04-06T18:08:07.394Z,11.40
2023-04-06T18:10:37.884Z,11.50
2023-04-06T18:13:04.690Z,11.50
2023-04-06T18:15:31.829Z,11.60
2023-04-06T18:17:58.563Z,11.70
2023-04-06T18:20:25.513Z,11.80
2023-04-06T18:22:52.343Z,11.80
2023-04-06T18:25:19.187Z,11.80
2023-04-06T18:27:46.012Z,11.80
2023-04-06T18:30:14.126Z,11.80
2023-04-06T18:32:40.916Z,11.80
2023-04-06T18:35:09.272Z,11.80
2023-04-06T18:37:36.654Z,11.80
2023-04-06T18:40:04.122Z,11.80
2023-04-06T18:42:30.860Z,11.80
2023-04-06T18:44:57.608Z,11.70
2023-04-06T18:47:24.351Z,11.70
2023-04-06T18:49:51.181Z,11.70
2023-04-06T18:52:17.971Z,11.70
2023-04-06T18:54:44.669Z,11.60
2023-04-06T18:57:11.368Z,11.60
2023-04-06T18:59:38.092Z,11.40
2023-04-06T19:02:04.946Z,11.30
2023-04-06T19:04:31.830Z,11.10
2023-04-06T19:07:00.722Z,10.80
2023-04-06T19:09:28.317Z,10.50
2023-04-06T19:11:55.027Z,10.40
2023-04-06T19:14:21.926Z,10.40
2023-04-06T19:16:52.395Z,10.40
2023-04-06T19:19:19.643Z,10.40
2023-04-06T19:21:46.690Z,10.30
2023-04-06T19:24:13.489Z,10.40
2023-04-06T19:26:40.243Z,10.40
2023-04-06T19:29:06.973Z,10.30
2023-04-06T19:31:33.771Z,10.30
2023-04-06T19:34:00.589Z,10.30
2023-04-06T19:36:28.375Z,10.40
2023-04-06T19:38:55.442Z,10.40
2023-04-06T19:41:22.201Z,10.50
2023-04-06T19:43:48.972Z,10.60
2023-04-06T19:46:15.763Z,10.60
2023-04-06T19:48:43.179Z,10.80
2023-04-06T19:51:09.937Z,10.90
2023-04-06T19:53:37.660Z,10.90
2023-04-06T19:56:04.559Z,10.90
2023-04-06T19:58:31.814Z,10.90
2023-04-06T20:00:58.522Z,10.80
2023-04-06T20:03:25.313Z,10.80
2023-04-06T20:05:52.062Z,10.80
2023-04-06T20:08:18.802Z,10.80
2023-04-06T20:10:45.712Z,10.80
2023-04-06T20:13:12.386Z,10.80
2023-04-06T20:18:06.354Z,10.70
2023-04-06T20:20:33.117Z,10.60
2023-04-06T20:22:59.836Z,10.60
2023-04-06T20:25:26.678Z,10.60
2023-04-06T20:27:54.095Z,10.60
2023-04-06T20:30:21.021Z,10.50
2023-04-06T20:32:47.779Z,10.50
2023-04-06T20:35:14.581Z,10.40
2023-04-06T20:37:41.934Z,10.50
2023-04-06T20:40:09.166Z,10.50
2023-04-06T20:42:37.234Z,10.40
2023-04-06T20:45:04.623Z,10.40
2023-04-06T20:47:31.958Z,10.30
2023-04-06T20:49:59.554Z,10.30
2023-04-06T20:52:29.410Z,10.20
2023-04-06T20:57:25.320Z,10.20
2023-04-06T20:59:52.076Z,10.20
2023-04-06T21:02:19.056Z,10.20
2023-04-06T21:04:45.888Z,10.10
2023-04-06T21:07:12.776Z,10.10
2023-04-06T21:09:40.841Z,10.10
2023-04-06T21:12:08.054Z,10.10
2023-04-06T21:14:35.345Z,10.10
2023-04-06T21:17:02.398Z,10.00
2023-04-06T21:19:29.232Z,10.00
2023-04-06T21:21:55.974Z,10.00
2023-04-06T21:24:22.710Z,9.90
2023-04-06T21:26:49.625Z,10.00
2023-04-06T21:29:16.431Z,10.00
2023-04-06T21:31:43.361Z,9.90
2023-04-06T21:34:13.961Z,9.90
2023-04-06T21:36:42.077Z,9.80
2023-04-06T21:39:09.378Z,9.80
2023-04-06T21:41:36.170Z,9.80
2023-04-06T21:44:03.045Z,9.80
2023-04-06T21:46:29.846Z,9.80
2023-04-06T21:48:56.621Z,9.80
2023-04-06T21:51:23.954Z,9.70
2023-04-06T21:53:52.640Z,9.60
2023-04-06T21:56:24.061Z,9.60
2023-04-06T21:58:52.125Z,9.60
2023-04-06T22:01:19.672Z,9.60
2023-04-06T22:03:47.219Z,9.60
2023-04-06T22:06:14.143Z,9.60
2023-04-06T22:08:40.929Z,9.60
2023-04-06T22:11:09.567Z,9.50
2023-04-06T22:13:36.762Z,9.50
2023-04-06T22:16:04.575Z,9.50
2023-04-06T22:20:59.047Z,9.50
2023-04-06T22:23:25.894Z,9.40
2023-04-06T22:25:53.101Z,9.40
2023-04-06T22:30:47.112Z,9.40
2023-04-06T22:33:13.893Z,9.40
2023-04-06T22:35:40.984Z,9.30
2023-04-06T22:38:07.762Z,9.30
2023-04-06T22:40:34.451Z,9.30
2023-04-06T22:43:01.135Z,9.40
2023-04-06T22:45:27.916Z,9.30
2023-04-06T22:47:54.643Z,9.40
2023-04-06T22:50:21.885Z,9.40
2023-04-06T22:52:48.822Z,9.40
2023-04-06T22:55:15.734Z,9.30
2023-04-06T22:57:42.496Z,9.30
2023-04-06T23:00:10.028Z,9.30
2023-04-06T23:02:36.823Z,9.30
2023-04-06T23:05:03.667Z,9.20
2023-04-06T23:07:32.531Z,9.20
2023-04-06T23:09:59.576Z,9.20
2023-04-06T23:12:26.355Z,9.20
2023-04-06T23:14:53.249Z,9.20
2023-04-06T23:17:20.069Z,9.20
2023-04-06T23:19:47.015Z,9.10
2023-04-06T23:22:13.701Z,9.10
2023-04-06T23:24:40.450Z,9.00
2023-04-06T23:27:07.214Z,9.00
2023-04-06T23:29:33.976Z,9.00
2023-04-06T23:32:01.153Z,9.00
2023-04-06T23:34:28.021Z,9.00
2023-04-06T23:36:55.187Z,9.00
2023-04-06T23:39:21.948Z,8.90
2023-04-06T23:44:16.014Z,8.90
2023-04-06T23:46:42.879Z,8.80
2023-04-06T23:49:09.711Z,8.80
2023-04-06T23:51:36.627Z,8.80
2023-04-06T23:54:04.869Z,8.80
2023-04-06T23:56:31.758Z,8.80
2023-04-06T23:58:58.558Z,8.70
